^^
Station Historical Data
Daily Summary for March 20, 2021 Units:  English    Metric   Both
Daily Weekly Monthly Yearly
  High: Low: Average:
Temperature: 49.9 °F 33.5 °F 40.2 °F
Dew Point: 35.4 °F 24.3 °F 29.9 °F
Humidity: 83% 39% 68%
Wind Speed: 7mph 0mph 2.6mph
Wind Gust: 9mph - -
Wind- - SW
Pressure: 30.59 in 30.42 in -
Precipitation: 0.00 in    
 
 
Tabular Data for March 20, 2021
Time Temperature Dew Point Pressure Wind Wind Speed Wind Gust Humidity Rainfall Rate (Hourly) solar
00:00 34.8 °F 29 °F 30.53 in NNW 1 mph 1 mph 79% 0.00 in 0 W/m2
00:05 34.8 °F 29 °F 30.53 in NNW 1 mph 1 mph 79% 0.00 in 0 W/m2
00:10 34.8 °F 29.3 °F 30.53 in NNW 1 mph 1 mph 80% 0.00 in 0 W/m2
00:15 34.7 °F 29.2 °F 30.52 in NNW 1 mph 2 mph 80% 0.00 in 0 W/m2
00:20 34.8 °F 29.6 °F 30.52 in NNW 1 mph 1 mph 81% 0.00 in 0 W/m2
00:25 35.1 °F 28.9 °F 30.52 in NNW 1 mph 2 mph 78% 0.00 in 0 W/m2
00:30 35.2 °F 29 °F 30.52 in NNW 1 mph 1 mph 78% 0.00 in 0 W/m2
00:35 35.4 °F 29.2 °F 30.52 in NNW 1 mph 1 mph 78% 0.00 in 0 W/m2
00:40 35.2 °F 29 °F 30.52 in WSW 1 mph 2 mph 78% 0.00 in 0 W/m2
00:45 35.1 °F 28.9 °F 30.52 in NW 1 mph 2 mph 78% 0.00 in 0 W/m2
00:50 34.9 °F 28.7 °F 30.52 in SW 1 mph 2 mph 78% 0.00 in 0 W/m2
00:55 35.3 °F 28.8 °F 30.53 in South 1 mph 2 mph 77% 0.00 in 0 W/m2
01:00 35.3 °F 28.5 °F 30.53 in SW 2 mph 2 mph 76% 0.00 in 0 W/m2
01:05 35.2 °F 28.7 °F 30.52 in SSW 2 mph 2 mph 77% 0.00 in 0 W/m2
01:10 35.1 °F 28.6 °F 30.53 in SSW 2 mph 2 mph 77% 0.00 in 0 W/m2
01:15 35.1 °F 28.6 °F 30.53 in SSE 2 mph 2 mph 77% 0.00 in 0 W/m2
01:20 35 °F 28.5 °F 30.53 in WSW 2 mph 2 mph 77% 0.00 in 0 W/m2
01:25 34.8 °F 28.3 °F 30.52 in ESE 1 mph 2 mph 77% 0.00 in 0 W/m2
01:30 34.8 °F 28.3 °F 30.52 in WSW 1 mph 2 mph 77% 0.00 in 0 W/m2
01:35 34.8 °F 29 °F 30.53 in WSW 1 mph 2 mph 79% 0.00 in 0 W/m2
01:40 34.9 °F 28.7 °F 30.52 in NNE 1 mph 1 mph 78% 0.00 in 0 W/m2
01:45 34.9 °F 29 °F 30.52 in NW 2 mph 2 mph 79% 0.00 in 0 W/m2
01:50 35 °F 29.1 °F 30.52 in ESE 1 mph 1 mph 79% 0.00 in 0 W/m2
01:55 35 °F 28.8 °F 30.52 in NNW 1 mph 2 mph 78% 0.00 in 0 W/m2
02:00 35.2 °F 29 °F 30.52 in NNW 2 mph 2 mph 78% 0.00 in 0 W/m2
02:05 35.2 °F 29 °F 30.52 in NNW 2 mph 2 mph 78% 0.00 in 0 W/m2
02:10 35.2 °F 28.7 °F 30.53 in SSW 2 mph 3 mph 77% 0.00 in 0 W/m2
02:15 35.2 °F 28.7 °F 30.53 in SSW 2 mph 4 mph 77% 0.00 in 0 W/m2
02:20 35.2 °F 28.4 °F 30.53 in South 3 mph 3 mph 76% 0.00 in 0 W/m2
02:25 35.1 °F 28.6 °F 30.53 in SSW 3 mph 5 mph 77% 0.00 in 0 W/m2
02:30 35.1 °F 28.6 °F 30.53 in SW 3 mph 3 mph 77% 0.00 in 0 W/m2
02:35 35 °F 28.8 °F 30.53 in SSW 2 mph 3 mph 78% 0.00 in 0 W/m2
02:40 35 °F 28.8 °F 30.52 in SW 1 mph 1 mph 78% 0.00 in 0 W/m2
02:45 34.8 °F 28.6 °F 30.52 in South 1 mph 3 mph 78% 0.00 in 0 W/m2
02:50 34.9 °F 29 °F 30.53 in NE 1 mph 1 mph 79% 0.00 in 0 W/m2
02:55 34.7 °F 28.9 °F 30.52 in West 1 mph 1 mph 79% 0.00 in 0 W/m2
03:00 34.8 °F 29 °F 30.53 in West 1 mph 1 mph 79% 0.00 in 0 W/m2
03:05 34.8 °F 29 °F 30.53 in SW 1 mph 2 mph 79% 0.00 in 0 W/m2
03:10 34.9 °F 28.4 °F 30.52 in ENE 2 mph 2 mph 77% 0.00 in 0 W/m2
03:15 34.8 °F 28.6 °F 30.52 in West 2 mph 2 mph 78% 0.00 in 0 W/m2
03:20 34.8 °F 28.6 °F 30.52 in SW 2 mph 2 mph 78% 0.00 in 0 W/m2
03:25 34.8 °F 28.6 °F 30.52 in West 2 mph 2 mph 78% 0.00 in 0 W/m2
03:30 34.8 °F 29 °F 30.52 in South 2 mph 4 mph 79% 0.00 in 0 W/m2
03:35 34.8 °F 28.6 °F 30.52 in SSW 2 mph 4 mph 78% 0.00 in 0 W/m2
03:40 34.8 °F 28.6 °F 30.52 in SSW 2 mph 2 mph 78% 0.00 in 0 W/m2
03:45 34.8 °F 29 °F 30.52 in SSW 2 mph 2 mph 79% 0.00 in 0 W/m2
03:50 34.8 °F 28.6 °F 30.52 in SW 3 mph 3 mph 78% 0.00 in 0 W/m2
03:55 34.8 °F 28.6 °F 30.52 in SSW 3 mph 4 mph 78% 0.00 in 0 W/m2
04:00 34.8 °F 29 °F 30.52 in SSE 3 mph 3 mph 79% 0.00 in 0 W/m2
04:05 34.6 °F 28.8 °F 30.52 in SE 2 mph 3 mph 79% 0.00 in 0 W/m2
04:10 34.6 °F 28.8 °F 30.52 in SSW 1 mph 1 mph 79% 0.00 in 0 W/m2
04:15 34.5 °F 28.7 °F 30.52 in ESE 1 mph 1 mph 79% 0.00 in 0 W/m2
04:20 34.5 °F 28.7 °F 30.52 in SSW 1 mph 1 mph 79% 0.00 in 0 W/m2
04:25 34.6 °F 28.8 °F 30.52 in WSW 1 mph 1 mph 79% 0.00 in 0 W/m2
04:30 34.8 °F 29 °F 30.52 in South 2 mph 2 mph 79% 0.00 in 0 W/m2
04:35 34.7 °F 28.9 °F 30.52 in SSW 1 mph 2 mph 79% 0.00 in 0 W/m2
04:40 34.8 °F 28.6 °F 30.52 in SSW 2 mph 4 mph 78% 0.00 in 0 W/m2
04:45 35.1 °F 28.6 °F 30.52 in SSW 2 mph 4 mph 77% 0.00 in 0 W/m2
04:50 35.2 °F 28.7 °F 30.52 in South 3 mph 3 mph 77% 0.00 in 0 W/m2
04:55 35.1 °F 28.6 °F 30.52 in SW 3 mph 3 mph 77% 0.00 in 0 W/m2
05:00 35.1 °F 28.9 °F 30.52 in SSE 2 mph 5 mph 78% 0.00 in 0 W/m2
05:05 35.1 °F 28.9 °F 30.52 in SSW 3 mph 5 mph 78% 0.00 in 0 W/m2
05:10 35.2 °F 28.7 °F 30.52 in SSW 3 mph 5 mph 77% 0.00 in 0 W/m2
05:15 35.3 °F 28.8 °F 30.52 in SSW 3 mph 5 mph 77% 0.00 in 0 W/m2
05:20 35.4 °F 28.6 °F 30.53 in SSW 3 mph 4 mph 76% 0.00 in 0 W/m2
05:25 35.4 °F 28.6 °F 30.53 in South 3 mph 4 mph 76% 0.00 in 0 W/m2
05:30 35.1 °F 28.3 °F 30.53 in SSE 3 mph 4 mph 76% 0.00 in 0 W/m2
05:35 34.9 °F 28.1 °F 30.53 in SSW 3 mph 6 mph 76% 0.00 in 0 W/m2
05:40 34.8 °F 28 °F 30.53 in SSW 4 mph 4 mph 76% 0.00 in 0 W/m2
05:45 34.7 °F 28.2 °F 30.53 in SE 3 mph 4 mph 77% 0.00 in 0 W/m2
05:50 34.5 °F 28 °F 30.53 in South 3 mph 3 mph 77% 0.00 in 0 W/m2
05:55 34.5 °F 27.7 °F 30.54 in South 3 mph 4 mph 76% 0.00 in 0 W/m2
06:00 34.5 °F 27.7 °F 30.54 in SW 3 mph 3 mph 76% 0.00 in 0 W/m2
06:05 34.5 °F 27.4 °F 30.54 in South 2 mph 3 mph 75% 0.00 in 0 W/m2
06:10 34.4 °F 27.6 °F 30.54 in South 2 mph 2 mph 76% 0.00 in 0 W/m2
06:15 34.3 °F 27.2 °F 30.54 in SSW 1 mph 2 mph 75% 0.00 in 0 W/m2
06:20 34.1 °F 27 °F 30.54 in South 1 mph 1 mph 75% 0.00 in 0 W/m2
06:25 34.1 °F 26.7 °F 30.54 in South 2 mph 2 mph 74% 0.00 in 0 W/m2
06:30 34.3 °F 26.5 °F 30.54 in SSW 2 mph 2 mph 73% 0.00 in 0 W/m2
06:35 34.3 °F 26.5 °F 30.55 in SSW 2 mph 2 mph 73% 0.00 in 0 W/m2
06:40 34.2 °F 26.4 °F 30.55 in SSW 2 mph 3 mph 73% 0.00 in 0 W/m2
06:45 34.1 °F 26.7 °F 30.55 in SW 2 mph 3 mph 74% 0.00 in 0 W/m2
06:50 33.9 °F 26.8 °F 30.55 in SSW 2 mph 2 mph 75% 0.00 in 0 W/m2
06:55 34 °F 26.9 °F 30.55 in South 2 mph 2 mph 75% 0.00 in 0 W/m2
07:00 34 °F 26.9 °F 30.55 in SSW 3 mph 3 mph 75% 0.00 in 0 W/m2
07:05 34 °F 27.2 °F 30.55 in SSW 3 mph 3 mph 76% 0.00 in 0 W/m2
07:10 33.7 °F 27.6 °F 30.55 in SSW 2 mph 2 mph 78% 0.00 in 0 W/m2
07:15 33.7 °F 27.6 °F 30.55 in SSW 2 mph 2 mph 78% 0.00 in 0 W/m2
07:20 33.7 °F 27.3 °F 30.55 in SSW 2 mph 2 mph 77% 0.00 in 0 W/m2
07:25 33.7 °F 27.3 °F 30.56 in SSW 2 mph 3 mph 77% 0.00 in 0 W/m2
07:30 33.7 °F 27.6 °F 30.56 in South 2 mph 3 mph 78% 0.00 in 0 W/m2
07:35 33.7 °F 27.3 °F 30.56 in SSW 2 mph 3 mph 77% 0.00 in 5 W/m2
07:40 33.7 °F 27.3 °F 30.56 in SSW 2 mph 2 mph 77% 0.00 in 7 W/m2
07:45 33.6 °F 27.2 °F 30.56 in SSW 3 mph 4 mph 77% 0.00 in 11 W/m2
07:50 33.6 °F 27.5 °F 30.56 in SSW 3 mph 4 mph 78% 0.00 in 12 W/m2
07:55 33.5 °F 27.7 °F 30.57 in SSW 3 mph 4 mph 79% 0.00 in 16 W/m2
08:00 33.5 °F 27.7 °F 30.57 in South 3 mph 4 mph 79% 0.00 in 18 W/m2
08:05 33.5 °F 27.7 °F 30.57 in South 3 mph 4 mph 79% 0.00 in 21 W/m2
08:10 33.6 °F 28.1 °F 30.57 in SSW 3 mph 4 mph 80% 0.00 in 28 W/m2
08:15 33.6 °F 27.8 °F 30.57 in SSW 3 mph 4 mph 79% 0.00 in 44 W/m2
08:20 33.6 °F 28.1 °F 30.57 in SSW 3 mph 3 mph 80% 0.00 in 63 W/m2
08:25 33.6 °F 28.1 °F 30.57 in South 3 mph 3 mph 80% 0.00 in 98 W/m2
08:30 33.7 °F 28.5 °F 30.57 in SW 3 mph 4 mph 81% 0.00 in 116 W/m2
08:35 33.8 °F 28.6 °F 30.57 in SW 3 mph 4 mph 81% 0.00 in 130 W/m2
08:40 33.9 °F 28.7 °F 30.57 in SSW 4 mph 4 mph 81% 0.00 in 142 W/m2
08:45 34.1 °F 28.9 °F 30.58 in SSW 4 mph 4 mph 81% 0.00 in 158 W/m2
08:50 34.2 °F 29.6 °F 30.57 in SSW 3 mph 3 mph 83% 0.00 in 172 W/m2
08:55 34.4 °F 29.5 °F 30.58 in SW 3 mph 3 mph 82% 0.00 in 188 W/m2
09:00 34.6 °F 29.7 °F 30.58 in SW 4 mph 4 mph 82% 0.00 in 204 W/m2
09:05 35.2 °F 29.3 °F 30.58 in WSW 4 mph 5 mph 79% 0.00 in 220 W/m2
09:10 35.3 °F 28.8 °F 30.58 in SW 5 mph 5 mph 77% 0.00 in 236 W/m2
09:15 35.5 °F 29.3 °F 30.58 in SW 5 mph 5 mph 78% 0.00 in 248 W/m2
09:20 35.6 °F 29.1 °F 30.58 in SW 5 mph 5 mph 77% 0.00 in 264 W/m2
09:25 35.6 °F 29.1 °F 30.58 in SW 5 mph 5 mph 77% 0.00 in 279 W/m2
09:30 35.8 °F 29.3 °F 30.58 in SW 5 mph 5 mph 77% 0.00 in 246 W/m2
09:35 36 °F 29.2 °F 30.58 in SW 4 mph 6 mph 76% 0.00 in 183 W/m2
09:40 36.1 °F 28.9 °F 30.58 in SSW 4 mph 5 mph 75% 0.00 in 283 W/m2
09:45 36.2 °F 29.4 °F 30.58 in SW 4 mph 5 mph 76% 0.00 in 267 W/m2
09:50 36.4 °F 29.2 °F 30.58 in SW 4 mph 4 mph 75% 0.00 in 137 W/m2
09:55 36.4 °F 29.6 °F 30.59 in SW 4 mph 5 mph 76% 0.00 in 156 W/m2
10:00 36.4 °F 29.2 °F 30.59 in SSW 5 mph 5 mph 75% 0.00 in 190 W/m2
10:05 36.4 °F 29.6 °F 30.59 in SW 5 mph 6 mph 76% 0.00 in 323 W/m2
10:10 36.4 °F 29.2 °F 30.59 in SSW 5 mph 5 mph 75% 0.00 in 304 W/m2
10:15 36.6 °F 29.7 °F 30.59 in SSW 5 mph 5 mph 76% 0.00 in 420 W/m2
10:20 36.4 °F 29.6 °F 30.59 in South 5 mph 5 mph 76% 0.00 in 292 W/m2
10:25 36.7 °F 29.5 °F 30.59 in SSW 5 mph 5 mph 75% 0.00 in 369 W/m2
10:30 36.8 °F 29.6 °F 30.59 in South 5 mph 5 mph 75% 0.00 in 425 W/m2
10:35 37 °F 29.8 °F 30.59 in SSW 5 mph 5 mph 75% 0.00 in 480 W/m2
10:40 37 °F 29.5 °F 30.59 in South 4 mph 5 mph 74% 0.00 in 492 W/m2
10:45 37 °F 30.1 °F 30.59 in SSW 4 mph 5 mph 76% 0.00 in 475 W/m2
10:50 37.2 °F 30 °F 30.59 in SW 4 mph 4 mph 75% 0.00 in 278 W/m2
10:55 37.2 °F 30 °F 30.59 in SSW 4 mph 4 mph 75% 0.00 in 399 W/m2
11:00 37.5 °F 30 °F 30.59 in SSW 4 mph 5 mph 74% 0.00 in 540 W/m2
11:05 37.7 °F 29.5 °F 30.59 in SW 5 mph 5 mph 72% 0.00 in 554 W/m2
11:10 37.8 °F 29.6 °F 30.58 in SW 5 mph 5 mph 72% 0.00 in 564 W/m2
11:15 37.8 °F 29.6 °F 30.58 in SSW 5 mph 5 mph 72% 0.00 in 577 W/m2
11:20 38 °F 29.8 °F 30.58 in SSW 4 mph 4 mph 72% 0.00 in 587 W/m2
11:25 38.4 °F 29.8 °F 30.58 in South 3 mph 4 mph 71% 0.00 in 596 W/m2
11:30 38.7 °F 29.4 °F 30.58 in SSW 4 mph 5 mph 69% 0.00 in 608 W/m2
11:35 38.8 °F 28.8 °F 30.58 in SSW 5 mph 5 mph 67% 0.00 in 617 W/m2
11:40 38.9 °F 28.9 °F 30.58 in SSW 5 mph 5 mph 67% 0.00 in 628 W/m2
11:45 39.1 °F 29.4 °F 30.58 in South 4 mph 5 mph 68% 0.00 in 638 W/m2
11:50 39.3 °F 30 °F 30.58 in South 4 mph 5 mph 69% 0.00 in 647 W/m2
11:55 40 °F 29.9 °F 30.58 in SSW 5 mph 6 mph 67% 0.00 in 656 W/m2
12:00 40.3 °F 29.8 °F 30.58 in SW 6 mph 6 mph 66% 0.00 in 663 W/m2
12:05 40.5 °F 30 °F 30.57 in SW 6 mph 7 mph 66% 0.00 in 671 W/m2
12:10 40.5 °F 29.7 °F 30.57 in South 7 mph 7 mph 65% 0.00 in 679 W/m2
12:15 40.5 °F 29.7 °F 30.57 in SSW 7 mph 7 mph 65% 0.00 in 687 W/m2
12:20 40.6 °F 30.5 °F 30.57 in South 6 mph 8 mph 67% 0.00 in 694 W/m2
12:25 40.8 °F 29.9 °F 30.57 in South 6 mph 8 mph 65% 0.00 in 700 W/m2
12:30 41.2 °F 30.7 °F 30.57 in SSW 7 mph 7 mph 66% 0.00 in 707 W/m2
12:35 41.3 °F 30.4 °F 30.57 in SSW 7 mph 9 mph 65% 0.00 in 712 W/m2
12:40 41.6 °F 30.3 °F 30.56 in SSW 7 mph 8 mph 64% 0.00 in 717 W/m2
12:45 41.9 °F 31 °F 30.56 in SW 7 mph 8 mph 65% 0.00 in 722 W/m2
12:50 42 °F 30.7 °F 30.56 in SSW 7 mph 7 mph 64% 0.00 in 728 W/m2
12:55 42.3 °F 31 °F 30.56 in SSW 6 mph 7 mph 64% 0.00 in 733 W/m2
13:00 42.5 °F 30.8 °F 30.56 in SSW 5 mph 5 mph 63% 0.00 in 737 W/m2
13:05 42.6 °F 30.5 °F 30.56 in South 5 mph 5 mph 62% 0.00 in 742 W/m2
13:10 42.8 °F 31.5 °F 30.56 in SSW 5 mph 6 mph 64% 0.00 in 744 W/m2
13:15 43.3 °F 31.5 °F 30.56 in SSW 6 mph 7 mph 63% 0.00 in 747 W/m2
13:20 43.4 °F 32 °F 30.56 in SSW 6 mph 6 mph 64% 0.00 in 751 W/m2
13:25 43.3 °F 31.9 °F 30.55 in SSW 5 mph 6 mph 64% 0.00 in 752 W/m2
13:30 44.5 °F 34.6 °F 30.55 in South 3 mph 3 mph 68% 0.00 in 756 W/m2
13:35 44.9 °F 33.5 °F 30.55 in SSE 2 mph 3 mph 64% 0.00 in 756 W/m2
13:40 44.3 °F 32.5 °F 30.55 in SSW 3 mph 5 mph 63% 0.00 in 758 W/m2
13:45 44.4 °F 33 °F 30.55 in SSW 5 mph 5 mph 64% 0.00 in 758 W/m2
13:50 45 °F 32.3 °F 30.55 in SW 6 mph 6 mph 61% 0.00 in 758 W/m2
13:55 44.9 °F 33.1 °F 30.55 in SSW 6 mph 6 mph 63% 0.00 in 758 W/m2
14:00 44.7 °F 33.3 °F 30.54 in SW 5 mph 5 mph 64% 0.00 in 758 W/m2
14:05 45.2 °F 34.1 °F 30.54 in SSW 5 mph 5 mph 65% 0.00 in 756 W/m2
14:10 45.7 °F 34.6 °F 30.54 in SW 4 mph 4 mph 65% 0.00 in 754 W/m2
14:15 46.3 °F 34.4 °F 30.54 in SW 4 mph 4 mph 63% 0.00 in 752 W/m2
14:20 45.9 °F 34.8 °F 30.54 in SW 4 mph 4 mph 65% 0.00 in 751 W/m2
14:25 46.1 °F 34.6 °F 30.53 in WSW 4 mph 4 mph 64% 0.00 in 747 W/m2
14:30 46.3 °F 33.2 °F 30.53 in West 4 mph 6 mph 60% 0.00 in 745 W/m2
14:35 46.5 °F 32.9 °F 30.53 in WSW 3 mph 6 mph 59% 0.00 in 742 W/m2
14:40 47.2 °F 30.5 °F 30.53 in WSW 4 mph 5 mph 52% 0.00 in 738 W/m2
14:45 47.7 °F 29.5 °F 30.52 in West 4 mph 5 mph 49% 0.00 in 733 W/m2
14:50 48.2 °F 28.4 °F 30.52 in West 5 mph 6 mph 46% 0.00 in 729 W/m2
14:55 47.8 °F 29.5 °F 30.52 in WSW 5 mph 6 mph 49% 0.00 in 726 W/m2
15:00 46.2 °F 32.7 °F 30.52 in West 4 mph 4 mph 59% 0.00 in 719 W/m2
15:05 44.9 °F 32.7 °F 30.52 in SSW 3 mph 4 mph 62% 0.00 in 714 W/m2
15:10 44.6 °F 33.9 °F 30.52 in SW 4 mph 4 mph 66% 0.00 in 707 W/m2
15:15 44.9 °F 33.5 °F 30.51 in WSW 4 mph 4 mph 64% 0.00 in 701 W/m2
15:20 45.6 °F 32.9 °F 30.51 in WSW 4 mph 4 mph 61% 0.00 in 694 W/m2
15:25 47.3 °F 31.9 °F 30.51 in West 4 mph 4 mph 55% 0.00 in 687 W/m2
15:30 48 °F 29.7 °F 30.51 in SW 4 mph 4 mph 49% 0.00 in 680 W/m2
15:35 47.6 °F 30.3 °F 30.51 in SSW 4 mph 4 mph 51% 0.00 in 671 W/m2
15:40 46.3 °F 31.4 °F 30.51 in SW 3 mph 3 mph 56% 0.00 in 664 W/m2
15:45 45.8 °F 32.7 °F 30.50 in SW 4 mph 4 mph 60% 0.00 in 654 W/m2
15:50 46.5 °F 32.5 °F 30.50 in West 4 mph 6 mph 58% 0.00 in 647 W/m2
15:55 46.1 °F 34.2 °F 30.50 in SSW 4 mph 6 mph 63% 0.00 in 635 W/m2
16:00 46.3 °F 34 °F 30.50 in SW 4 mph 4 mph 62% 0.00 in 626 W/m2
16:05 46.5 °F 33.4 °F 30.50 in SW 4 mph 4 mph 60% 0.00 in 617 W/m2
16:10 45.8 °F 33.1 °F 30.50 in SSW 3 mph 3 mph 61% 0.00 in 608 W/m2
16:15 45.8 °F 34.7 °F 30.50 in SSW 2 mph 3 mph 65% 0.00 in 596 W/m2
16:20 45.5 °F 34 °F 30.49 in SSW 1 mph 1 mph 64% 0.00 in 587 W/m2
16:25 45.2 °F 34.1 °F 30.49 in SSW 1 mph 1 mph 65% 0.00 in 575 W/m2
16:30 45.5 °F 34.8 °F 30.49 in SSW 1 mph 1 mph 66% 0.00 in 563 W/m2
16:35 45.8 °F 34.3 °F 30.49 in SSW 1 mph 2 mph 64% 0.00 in 550 W/m2
16:40 46.7 °F 33.5 °F 30.49 in SSW 1 mph 1 mph 60% 0.00 in 540 W/m2
16:45 46.8 °F 32.4 °F 30.48 in SSW 1 mph 2 mph 57% 0.00 in 526 W/m2
16:50 47.2 °F 33.2 °F 30.48 in SSW 2 mph 2 mph 58% 0.00 in 513 W/m2
16:55 47.4 °F 33.8 °F 30.48 in SSW 2 mph 3 mph 59% 0.00 in 501 W/m2
17:00 47.9 °F 34.7 °F 30.48 in SSW 2 mph 2 mph 60% 0.00 in 487 W/m2
17:05 48.2 °F 35.4 °F 30.48 in SW 2 mph 4 mph 61% 0.00 in 473 W/m2
17:10 48.3 °F 33.3 °F 30.48 in SSW 3 mph 3 mph 56% 0.00 in 461 W/m2
17:15 48.3 °F 33.3 °F 30.48 in SSW 2 mph 3 mph 56% 0.00 in 446 W/m2
17:20 47.7 °F 31.4 °F 30.47 in SSW 1 mph 1 mph 53% 0.00 in 432 W/m2
17:25 47.5 °F 30.7 °F 30.47 in SSW 1 mph 1 mph 52% 0.00 in 417 W/m2
17:30 47.8 °F 31.9 °F 30.47 in SSW 1 mph 1 mph 54% 0.00 in 403 W/m2
17:35 48.3 °F 32.9 °F 30.47 in SSW 1 mph 3 mph 55% 0.00 in 387 W/m2
17:40 48.6 °F 32.7 °F 30.47 in SSW 2 mph 2 mph 54% 0.00 in 374 W/m2
17:45 48.3 °F 33.8 °F 30.46 in SSW 2 mph 2 mph 57% 0.00 in 359 W/m2
17:50 48.1 °F 32.7 °F 30.46 in SSW 1 mph 2 mph 55% 0.00 in 343 W/m2
17:55 47.7 °F 34.1 °F 30.46 in SSW 1 mph 2 mph 59% 0.00 in 327 W/m2
18:00 46.9 °F 33.7 °F 30.46 in SSW 1 mph 1 mph 60% 0.00 in 311 W/m2
18:05 46 °F 34.5 °F 30.45 in Calm   1 mph 64% 0.00 in 295 W/m2
18:10 46.4 °F 32.8 °F 30.45 in Calm     59% 0.00 in 279 W/m2
18:15 46.9 °F 33.7 °F 30.45 in Calm     60% 0.00 in 264 W/m2
18:20 47.4 °F 32.5 °F 30.45 in Calm   1 mph 56% 0.00 in 246 W/m2
18:25 47.4 °F 32.5 °F 30.45 in Calm   1 mph 56% 0.00 in 232 W/m2
18:30 47.8 °F 31 °F 30.45 in Calm   1 mph 52% 0.00 in 200 W/m2
18:35 48.6 °F 30.3 °F 30.45 in SSW 1 mph 2 mph 49% 0.00 in 179 W/m2
18:40 48.8 °F 29.4 °F 30.45 in SW 2 mph 2 mph 47% 0.00 in 174 W/m2
18:45 49.2 °F 28.7 °F 30.45 in SW 2 mph 2 mph 45% 0.00 in 134 W/m2
18:50 49.5 °F 28.5 °F 30.44 in SW 2 mph 2 mph 44% 0.00 in 144 W/m2
18:55 49.8 °F 27 °F 30.44 in SW 1 mph 2 mph 41% 0.00 in 79 W/m2
19:00 49.9 °F 27.1 °F 30.44 in SW 1 mph 3 mph 41% 0.00 in 79 W/m2
19:05 49.7 °F 27.5 °F 30.44 in SW 2 mph 3 mph 42% 0.00 in 67 W/m2
19:10 49.6 °F 26.8 °F 30.44 in SW 2 mph 2 mph 41% 0.00 in 44 W/m2
19:15 49.7 °F 25.7 °F 30.44 in SW 2 mph 2 mph 39% 0.00 in 46 W/m2
19:20 49.5 °F 26.7 °F 30.44 in SW 2 mph 2 mph 41% 0.00 in 28 W/m2
19:25 49.2 °F 25.9 °F 30.44 in SW 2 mph 2 mph 40% 0.00 in 23 W/m2
19:30 48.8 °F 25.5 °F 30.44 in SW 1 mph 1 mph 40% 0.00 in 19 W/m2
19:35 48.3 °F 29 °F 30.44 in Calm   1 mph 47% 0.00 in 14 W/m2
19:40 47.7 °F 30 °F 30.43 in Calm   1 mph 50% 0.00 in 9 W/m2
19:45 47 °F 29.3 °F 30.43 in SW 1 mph 1 mph 50% 0.00 in 5 W/m2
19:50 46.8 °F 27.6 °F 30.43 in Calm     47% 0.00 in 0 W/m2
19:55 46.7 °F 27 °F 30.43 in Calm     46% 0.00 in 0 W/m2
20:00 47.1 °F 26.3 °F 30.43 in Calm     44% 0.00 in 0 W/m2
20:05 47.2 °F 26.4 °F 30.43 in Calm     44% 0.00 in 0 W/m2
20:10 47.3 °F 24.8 °F 30.43 in Calm     41% 0.00 in 0 W/m2
20:15 47.4 °F 24.3 °F 30.43 in Calm     40% 0.00 in 0 W/m2
20:20 47.5 °F 24.3 °F 30.43 in Calm     40% 0.00 in 0 W/m2
20:25 46.9 °F 24.4 °F 30.43 in Calm     41% 0.00 in 0 W/m2
20:30 46.9 °F 24.4 °F 30.43 in Calm     41% 0.00 in 0 W/m2
20:35 46.2 °F 24.3 °F 30.43 in Calm     42% 0.00 in 0 W/m2
20:40 45.6 °F 26.5 °F 30.43 in Calm     47% 0.00 in 0 W/m2
20:45 45.2 °F 28.6 °F 30.43 in Calm     52% 0.00 in 0 W/m2
20:50 44.7 °F 27.7 °F 30.43 in Calm     51% 0.00 in 0 W/m2
20:55 44.5 °F 27.5 °F 30.43 in Calm     51% 0.00 in 0 W/m2
21:00 44.4 °F 26.4 °F 30.44 in Calm     49% 0.00 in 0 W/m2
21:05 44.4 °F 26.4 °F 30.44 in Calm     49% 0.00 in 0 W/m2
21:10 44.4 °F 26.4 °F 30.44 in Calm     49% 0.00 in 0 W/m2
21:15 44.5 °F 27.5 °F 30.44 in Calm     51% 0.00 in 0 W/m2
21:20 44.2 °F 27.7 °F 30.44 in Calm   1 mph 52% 0.00 in 0 W/m2
21:25 44.1 °F 27.6 °F 30.44 in Calm   1 mph 52% 0.00 in 0 W/m2
21:30 43.9 °F 28.3 °F 30.44 in SW 1 mph 3 mph 54% 0.00 in 0 W/m2
21:35 42.7 °F 32.5 °F 30.44 in SSE 2 mph 3 mph 67% 0.00 in 0 W/m2
21:40 42.7 °F 34.6 °F 30.44 in SE 2 mph 2 mph 73% 0.00 in 0 W/m2
21:45 42.8 °F 34.4 °F 30.44 in SE 2 mph 2 mph 72% 0.00 in 0 W/m2
21:50 43 °F 33.5 °F 30.44 in SSW 2 mph 3 mph 69% 0.00 in 0 W/m2
21:55 42.7 °F 32.9 °F 30.44 in WNW 2 mph 3 mph 68% 0.00 in 0 W/m2
22:00 42.8 °F 33.3 °F 30.44 in North 2 mph 2 mph 69% 0.00 in 0 W/m2
22:05 42.6 °F 33.5 °F 30.44 in WSW 2 mph 2 mph 70% 0.00 in 0 W/m2
22:10 42.6 °F 33.5 °F 30.44 in South 2 mph 2 mph 70% 0.00 in 0 W/m2
22:15 42.3 °F 33.9 °F 30.44 in NNW 1 mph 2 mph 72% 0.00 in 0 W/m2
22:20 42 °F 33.6 °F 30.44 in NW 2 mph 2 mph 72% 0.00 in 0 W/m2
22:25 41.6 °F 33.9 °F 30.43 in NW 2 mph 2 mph 74% 0.00 in 0 W/m2
22:30 41.3 °F 33.6 °F 30.44 in NW 2 mph 2 mph 74% 0.00 in 0 W/m2
22:35 41.3 °F 33.6 °F 30.43 in NW 2 mph 2 mph 74% 0.00 in 0 W/m2
22:40 41.4 °F 33.4 °F 30.43 in West 2 mph 3 mph 73% 0.00 in 0 W/m2
22:45 41.3 °F 33.6 °F 30.43 in NE 2 mph 3 mph 74% 0.00 in 0 W/m2
22:50 41.1 °F 33.4 °F 30.43 in NW 2 mph 2 mph 74% 0.00 in 0 W/m2
22:55 41.4 °F 33.4 °F 30.43 in WNW 2 mph 2 mph 73% 0.00 in 0 W/m2
23:00 41.5 °F 33.5 °F 30.43 in North 2 mph 2 mph 73% 0.00 in 0 W/m2
23:05 41.5 °F 33.1 °F 30.43 in NE 2 mph 2 mph 72% 0.00 in 0 W/m2
23:10 41.6 °F 32.5 °F 30.43 in WNW 2 mph 2 mph 70% 0.00 in 0 W/m2
23:15 41.5 °F 32.8 °F 30.43 in North 2 mph 2 mph 71% 0.00 in 0 W/m2
23:20 41.5 °F 32.4 °F 30.43 in NE 2 mph 2 mph 70% 0.00 in 0 W/m2
23:25 41.6 °F 32.2 °F 30.43 in NE 2 mph 2 mph 69% 0.00 in 0 W/m2
23:30 41.5 °F 32.1 °F 30.43 in SE 2 mph 3 mph 69% 0.00 in 0 W/m2
23:35 41.3 °F 31.9 °F 30.43 in WNW 2 mph 3 mph 69% 0.00 in 0 W/m2
23:40 41.4 °F 31.6 °F 30.43 in WSW 2 mph 2 mph 68% 0.00 in 0 W/m2
23:45 41.3 °F 31.5 °F 30.43 in NW 2 mph 3 mph 68% 0.00 in 0 W/m2
23:50 41.3 °F 31.5 °F 30.43 in South 2 mph 4 mph 68% 0.00 in 0 W/m2
23:55 41.1 °F 31.3 °F 30.42 in NNW 3 mph 4 mph 68% 0.00 in 0 W/m2
Sand Point, Michigan, USA
Compliments of Weather Underground - 2 mb